sensor_id;sensor_type;location;lat;lon;timestamp;P1;durP1;ratioP1;P2;durP2;ratioP2
17820;SDS011;9035;42.554;23.188;2022-09-09T00:02:10;8.03;;;6.63;;
17820;SDS011;9035;42.554;23.188;2022-09-09T00:04:45;7.57;;;6.77;;
17820;SDS011;9035;42.554;23.188;2022-09-09T00:07:21;8.50;;;6.57;;
17820;SDS011;9035;42.554;23.188;2022-09-09T00:09:58;7.47;;;6.77;;
17820;SDS011;9035;42.554;23.188;2022-09-09T00:12:34;8.43;;;6.47;;
17820;SDS011;9035;42.554;23.188;2022-09-09T00:15:07;7.10;;;6.40;;
17820;SDS011;9035;42.554;23.188;2022-09-09T00:17:41;10.23;;;7.50;;
17820;SDS011;9035;42.554;23.188;2022-09-09T00:20:14;8.03;;;6.70;;
17820;SDS011;9035;42.554;23.188;2022-09-09T00:22:50;7.90;;;7.17;;
17820;SDS011;9035;42.554;23.188;2022-09-09T00:25:26;7.37;;;6.73;;
17820;SDS011;9035;42.554;23.188;2022-09-09T00:27:59;6.70;;;6.10;;
17820;SDS011;9035;42.554;23.188;2022-09-09T00:30:27;7.60;;;6.80;;
17820;SDS011;9035;42.554;23.188;2022-09-09T00:32:59;7.40;;;6.70;;
17820;SDS011;9035;42.554;23.188;2022-09-09T00:35:29;7.30;;;6.60;;
17820;SDS011;9035;42.554;23.188;2022-09-09T00:38:00;7.00;;;6.20;;
17820;SDS011;9035;42.554;23.188;2022-09-09T00:40:34;9.87;;;6.63;;
17820;SDS011;9035;42.554;23.188;2022-09-09T00:43:09;8.00;;;6.93;;
17820;SDS011;9035;42.554;23.188;2022-09-09T00:48:52;7.60;;;6.90;;
17820;SDS011;9035;42.554;23.188;2022-09-09T00:51:27;10.87;;;7.20;;
17820;SDS011;9035;42.554;23.188;2022-09-09T00:54:13;7.60;;;7.00;;
17820;SDS011;9035;42.554;23.188;2022-09-09T00:56:53;8.67;;;7.00;;
17820;SDS011;9035;42.554;23.188;2022-09-09T00:59:32;9.33;;;7.73;;
17820;SDS011;9035;42.554;23.188;2022-09-09T01:02:09;9.27;;;7.00;;
17820;SDS011;9035;42.554;23.188;2022-09-09T01:04:42;8.27;;;7.23;;
17820;SDS011;9035;42.554;23.188;2022-09-09T01:07:11;7.60;;;6.80;;
17820;SDS011;9035;42.554;23.188;2022-09-09T01:09:45;7.57;;;6.87;;
17820;SDS011;9035;42.554;23.188;2022-09-09T01:12:24;9.13;;;7.50;;
17820;SDS011;9035;42.554;23.188;2022-09-09T01:15:07;8.27;;;6.83;;
17820;SDS011;9035;42.554;23.188;2022-09-09T01:17:39;10.53;;;7.13;;
17820;SDS011;9035;42.554;23.188;2022-09-09T01:20:15;8.00;;;7.07;;
17820;SDS011;9035;42.554;23.188;2022-09-09T01:22:50;8.80;;;6.93;;
17820;SDS011;9035;42.554;23.188;2022-09-09T01:26:03;7.50;;;6.80;;
17820;SDS011;9035;42.554;23.188;2022-09-09T01:28:39;8.17;;;7.07;;
17820;SDS011;9035;42.554;23.188;2022-09-09T01:31:09;7.10;;;6.40;;
17820;SDS011;9035;42.554;23.188;2022-09-09T01:33:40;7.90;;;7.03;;
17820;SDS011;9035;42.554;23.188;2022-09-09T01:36:08;7.70;;;6.90;;
17820;SDS011;9035;42.554;23.188;2022-09-09T01:38:39;7.57;;;6.87;;
17820;SDS011;9035;42.554;23.188;2022-09-09T01:41:07;6.93;;;6.33;;
17820;SDS011;9035;42.554;23.188;2022-09-09T01:43:34;7.17;;;6.47;;
17820;SDS011;9035;42.554;23.188;2022-09-09T01:46:01;7.30;;;6.60;;
17820;SDS011;9035;42.554;23.188;2022-09-09T01:48:28;8.87;;;7.07;;
17820;SDS011;9035;42.554;23.188;2022-09-09T01:50:56;7.63;;;6.83;;
17820;SDS011;9035;42.554;23.188;2022-09-09T01:53:22;7.40;;;6.60;;
17820;SDS011;9035;42.554;23.188;2022-09-09T01:55:52;7.20;;;6.50;;
17820;SDS011;9035;42.554;23.188;2022-09-09T01:58:33;6.60;;;5.97;;
17820;SDS011;9035;42.554;23.188;2022-09-09T02:01:22;8.20;;;6.40;;
17820;SDS011;9035;42.554;23.188;2022-09-09T02:04:02;7.63;;;6.40;;
17820;SDS011;9035;42.554;23.188;2022-09-09T02:06:37;8.30;;;7.07;;
17820;SDS011;9035;42.554;23.188;2022-09-09T02:09:06;7.40;;;6.67;;
17820;SDS011;9035;42.554;23.188;2022-09-09T02:11:38;7.63;;;6.67;;
17820;SDS011;9035;42.554;23.188;2022-09-09T02:14:08;8.80;;;6.23;;
17820;SDS011;9035;42.554;23.188;2022-09-09T02:16:39;7.07;;;6.37;;
17820;SDS011;9035;42.554;23.188;2022-09-09T02:19:10;8.90;;;6.30;;
17820;SDS011;9035;42.554;23.188;2022-09-09T02:21:41;8.37;;;6.70;;
17820;SDS011;9035;42.554;23.188;2022-09-09T02:24:10;9.73;;;6.57;;
17820;SDS011;9035;42.554;23.188;2022-09-09T02:26:41;9.70;;;6.17;;
17820;SDS011;9035;42.554;23.188;2022-09-09T02:29:11;6.87;;;6.13;;
17820;SDS011;9035;42.554;23.188;2022-09-09T02:31:40;9.77;;;6.00;;
17820;SDS011;9035;42.554;23.188;2022-09-09T02:34:09;7.73;;;6.30;;
17820;SDS011;9035;42.554;23.188;2022-09-09T02:36:40;6.03;;;5.53;;
17820;SDS011;9035;42.554;23.188;2022-09-09T02:39:10;12.17;;;6.40;;
17820;SDS011;9035;42.554;23.188;2022-09-09T02:41:38;7.27;;;5.97;;
17820;SDS011;9035;42.554;23.188;2022-09-09T02:44:08;6.37;;;5.77;;
17820;SDS011;9035;42.554;23.188;2022-09-09T02:46:44;6.60;;;6.00;;
17820;SDS011;9035;42.554;23.188;2022-09-09T02:49:35;6.43;;;5.70;;
17820;SDS011;9035;42.554;23.188;2022-09-09T02:52:12;6.57;;;6.00;;
17820;SDS011;9035;42.554;23.188;2022-09-09T02:54:41;6.50;;;5.90;;
17820;SDS011;9035;42.554;23.188;2022-09-09T02:57:10;7.50;;;5.83;;
17820;SDS011;9035;42.554;23.188;2022-09-09T02:59:39;8.30;;;6.10;;
17820;SDS011;9035;42.554;23.188;2022-09-09T03:02:07;6.47;;;5.30;;
17820;SDS011;9035;42.554;23.188;2022-09-09T03:04:36;6.57;;;5.50;;
17820;SDS011;9035;42.554;23.188;2022-09-09T03:07:03;7.90;;;6.13;;
17820;SDS011;9035;42.554;23.188;2022-09-09T03:09:30;6.57;;;5.93;;
17820;SDS011;9035;42.554;23.188;2022-09-09T03:11:57;7.03;;;5.80;;
17820;SDS011;9035;42.554;23.188;2022-09-09T03:14:25;7.30;;;5.80;;
17820;SDS011;9035;42.554;23.188;2022-09-09T03:16:53;6.60;;;5.87;;
17820;SDS011;9035;42.554;23.188;2022-09-09T03:19:21;7.00;;;5.57;;
17820;SDS011;9035;42.554;23.188;2022-09-09T03:21:48;8.83;;;6.40;;
17820;SDS011;9035;42.554;23.188;2022-09-09T03:24:14;7.77;;;6.10;;
17820;SDS011;9035;42.554;23.188;2022-09-09T03:26:41;7.47;;;5.80;;
17820;SDS011;9035;42.554;23.188;2022-09-09T03:29:09;8.47;;;5.47;;
17820;SDS011;9035;42.554;23.188;2022-09-09T03:31:37;6.87;;;5.90;;
17820;SDS011;9035;42.554;23.188;2022-09-09T03:34:06;5.67;;;5.17;;
17820;SDS011;9035;42.554;23.188;2022-09-09T03:36:32;6.47;;;5.73;;
17820;SDS011;9035;42.554;23.188;2022-09-09T03:39:00;13.70;;;6.10;;
17820;SDS011;9035;42.554;23.188;2022-09-09T03:41:28;6.30;;;5.70;;
17820;SDS011;9035;42.554;23.188;2022-09-09T03:43:55;7.67;;;5.77;;
17820;SDS011;9035;42.554;23.188;2022-09-09T03:46:23;6.37;;;5.80;;
17820;SDS011;9035;42.554;23.188;2022-09-09T03:48:50;7.57;;;6.10;;
17820;SDS011;9035;42.554;23.188;2022-09-09T03:51:19;7.43;;;6.10;;
17820;SDS011;9035;42.554;23.188;2022-09-09T03:53:47;6.63;;;6.03;;
17820;SDS011;9035;42.554;23.188;2022-09-09T03:56:14;6.40;;;5.80;;
17820;SDS011;9035;42.554;23.188;2022-09-09T03:58:40;6.80;;;5.93;;
17820;SDS011;9035;42.554;23.188;2022-09-09T04:01:08;8.23;;;5.60;;
17820;SDS011;9035;42.554;23.188;2022-09-09T04:03:38;7.47;;;5.63;;
17820;SDS011;9035;42.554;23.188;2022-09-09T04:06:05;8.07;;;6.23;;
17820;SDS011;9035;42.554;23.188;2022-09-09T04:08:35;6.20;;;5.60;;
17820;SDS011;9035;42.554;23.188;2022-09-09T04:11:03;10.93;;;6.10;;
17820;SDS011;9035;42.554;23.188;2022-09-09T04:13:32;7.63;;;5.73;;
17820;SDS011;9035;42.554;23.188;2022-09-09T04:16:00;8.67;;;6.13;;
17820;SDS011;9035;42.554;23.188;2022-09-09T04:18:29;7.23;;;5.80;;
17820;SDS011;9035;42.554;23.188;2022-09-09T04:20:57;8.80;;;5.93;;
17820;SDS011;9035;42.554;23.188;2022-09-09T04:23:24;6.57;;;5.97;;
17820;SDS011;9035;42.554;23.188;2022-09-09T04:25:53;7.10;;;6.40;;
17820;SDS011;9035;42.554;23.188;2022-09-09T04:28:22;8.97;;;6.07;;
17820;SDS011;9035;42.554;23.188;2022-09-09T04:30:50;8.53;;;6.30;;
17820;SDS011;9035;42.554;23.188;2022-09-09T04:33:17;12.03;;;6.40;;
17820;SDS011;9035;42.554;23.188;2022-09-09T04:35:45;7.93;;;6.17;;
17820;SDS011;9035;42.554;23.188;2022-09-09T04:38:13;8.17;;;6.00;;
17820;SDS011;9035;42.554;23.188;2022-09-09T04:40:41;8.27;;;6.10;;
17820;SDS011;9035;42.554;23.188;2022-09-09T04:43:10;6.67;;;5.80;;
17820;SDS011;9035;42.554;23.188;2022-09-09T04:45:39;11.17;;;6.43;;
17820;SDS011;9035;42.554;23.188;2022-09-09T04:48:06;6.60;;;6.00;;
17820;SDS011;9035;42.554;23.188;2022-09-09T04:50:32;13.50;;;6.63;;
17820;SDS011;9035;42.554;23.188;2022-09-09T04:53:00;6.37;;;5.77;;
17820;SDS011;9035;42.554;23.188;2022-09-09T04:55:27;8.60;;;6.40;;
17820;SDS011;9035;42.554;23.188;2022-09-09T04:57:55;7.50;;;6.77;;
17820;SDS011;9035;42.554;23.188;2022-09-09T05:00:23;6.57;;;5.97;;
17820;SDS011;9035;42.554;23.188;2022-09-09T05:02:50;7.27;;;6.50;;
17820;SDS011;9035;42.554;23.188;2022-09-09T05:05:17;7.77;;;6.30;;
17820;SDS011;9035;42.554;23.188;2022-09-09T05:07:44;7.70;;;6.80;;
17820;SDS011;9035;42.554;23.188;2022-09-09T05:10:12;7.80;;;6.40;;
17820;SDS011;9035;42.554;23.188;2022-09-09T05:12:39;9.17;;;6.57;;
17820;SDS011;9035;42.554;23.188;2022-09-09T05:15:06;8.33;;;6.83;;
17820;SDS011;9035;42.554;23.188;2022-09-09T05:17:36;7.37;;;6.53;;
17820;SDS011;9035;42.554;23.188;2022-09-09T05:20:02;8.67;;;6.43;;
17820;SDS011;9035;42.554;23.188;2022-09-09T05:22:30;12.30;;;6.60;;
17820;SDS011;9035;42.554;23.188;2022-09-09T05:24:57;7.73;;;6.83;;
17820;SDS011;9035;42.554;23.188;2022-09-09T05:27:23;10.90;;;6.80;;
17820;SDS011;9035;42.554;23.188;2022-09-09T05:29:50;7.73;;;6.73;;
17820;SDS011;9035;42.554;23.188;2022-09-09T05:32:17;7.77;;;6.53;;
17820;SDS011;9035;42.554;23.188;2022-09-09T05:34:45;9.90;;;6.93;;
17820;SDS011;9035;42.554;23.188;2022-09-09T05:37:12;10.13;;;6.40;;
17820;SDS011;9035;42.554;23.188;2022-09-09T05:39:39;9.73;;;6.00;;
17820;SDS011;9035;42.554;23.188;2022-09-09T05:42:06;7.60;;;6.20;;
17820;SDS011;9035;42.554;23.188;2022-09-09T05:44:33;6.77;;;5.60;;
17820;SDS011;9035;42.554;23.188;2022-09-09T05:46:59;10.60;;;6.37;;
17820;SDS011;9035;42.554;23.188;2022-09-09T05:49:26;8.80;;;6.40;;
17820;SDS011;9035;42.554;23.188;2022-09-09T05:51:54;8.90;;;6.20;;
17820;SDS011;9035;42.554;23.188;2022-09-09T05:54:21;9.53;;;5.80;;
17820;SDS011;9035;42.554;23.188;2022-09-09T05:56:48;7.90;;;6.43;;
17820;SDS011;9035;42.554;23.188;2022-09-09T05:59:17;7.57;;;6.67;;
17820;SDS011;9035;42.554;23.188;2022-09-09T06:01:44;8.87;;;6.80;;
17820;SDS011;9035;42.554;23.188;2022-09-09T06:04:11;7.77;;;6.40;;
17820;SDS011;9035;42.554;23.188;2022-09-09T06:06:38;12.27;;;6.10;;
17820;SDS011;9035;42.554;23.188;2022-09-09T06:09:08;8.77;;;6.17;;
17820;SDS011;9035;42.554;23.188;2022-09-09T06:11:37;7.83;;;6.17;;
17820;SDS011;9035;42.554;23.188;2022-09-09T06:14:05;7.40;;;5.90;;
17820;SDS011;9035;42.554;23.188;2022-09-09T06:16:33;8.10;;;5.87;;
17820;SDS011;9035;42.554;23.188;2022-09-09T06:19:02;7.60;;;5.50;;
17820;SDS011;9035;42.554;23.188;2022-09-09T06:21:31;8.50;;;5.43;;
17820;SDS011;9035;42.554;23.188;2022-09-09T06:24:00;12.73;;;6.13;;
17820;SDS011;9035;42.554;23.188;2022-09-09T06:26:29;10.57;;;6.17;;
17820;SDS011;9035;42.554;23.188;2022-09-09T06:28:58;7.37;;;5.90;;
17820;SDS011;9035;42.554;23.188;2022-09-09T06:31:26;7.73;;;6.50;;
17820;SDS011;9035;42.554;23.188;2022-09-09T06:33:55;10.77;;;6.43;;
17820;SDS011;9035;42.554;23.188;2022-09-09T06:36:22;8.27;;;6.43;;
17820;SDS011;9035;42.554;23.188;2022-09-09T06:38:50;11.00;;;7.20;;
17820;SDS011;9035;42.554;23.188;2022-09-09T06:41:17;7.70;;;6.03;;
17820;SDS011;9035;42.554;23.188;2022-09-09T06:43:46;10.23;;;6.27;;
17820;SDS011;9035;42.554;23.188;2022-09-09T06:46:14;13.30;;;6.93;;
17820;SDS011;9035;42.554;23.188;2022-09-09T06:48:43;8.87;;;6.67;;
17820;SDS011;9035;42.554;23.188;2022-09-09T06:51:11;8.57;;;6.60;;
17820;SDS011;9035;42.554;23.188;2022-09-09T06:53:39;8.90;;;7.60;;
17820;SDS011;9035;42.554;23.188;2022-09-09T06:56:17;12.77;;;6.70;;
17820;SDS011;9035;42.554;23.188;2022-09-09T06:58:48;12.27;;;6.90;;
17820;SDS011;9035;42.554;23.188;2022-09-09T07:01:16;7.97;;;7.17;;
17820;SDS011;9035;42.554;23.188;2022-09-09T07:03:45;7.47;;;6.40;;
17820;SDS011;9035;42.554;23.188;2022-09-09T07:06:16;7.43;;;6.73;;
17820;SDS011;9035;42.554;23.188;2022-09-09T07:08:44;7.57;;;6.70;;
17820;SDS011;9035;42.554;23.188;2022-09-09T07:11:15;8.23;;;6.43;;
17820;SDS011;9035;42.554;23.188;2022-09-09T07:13:42;11.47;;;6.67;;
17820;SDS011;9035;42.554;23.188;2022-09-09T07:16:11;10.87;;;7.50;;
17820;SDS011;9035;42.554;23.188;2022-09-09T07:18:39;11.47;;;7.00;;
17820;SDS011;9035;42.554;23.188;2022-09-09T07:21:07;11.17;;;6.70;;
17820;SDS011;9035;42.554;23.188;2022-09-09T07:23:35;10.40;;;7.03;;
17820;SDS011;9035;42.554;23.188;2022-09-09T07:26:02;8.77;;;7.03;;
17820;SDS011;9035;42.554;23.188;2022-09-09T07:28:29;10.37;;;7.60;;
17820;SDS011;9035;42.554;23.188;2022-09-09T07:30:56;11.20;;;6.87;;
17820;SDS011;9035;42.554;23.188;2022-09-09T07:33:25;9.83;;;7.03;;
17820;SDS011;9035;42.554;23.188;2022-09-09T07:36:01;12.23;;;6.87;;
17820;SDS011;9035;42.554;23.188;2022-09-09T07:38:30;16.60;;;6.73;;
17820;SDS011;9035;42.554;23.188;2022-09-09T07:41:02;8.27;;;6.83;;
17820;SDS011;9035;42.554;23.188;2022-09-09T07:43:30;11.57;;;7.37;;
17820;SDS011;9035;42.554;23.188;2022-09-09T07:45:57;11.30;;;6.87;;
17820;SDS011;9035;42.554;23.188;2022-09-09T07:48:25;12.50;;;7.00;;
17820;SDS011;9035;42.554;23.188;2022-09-09T07:50:52;8.70;;;6.03;;
17820;SDS011;9035;42.554;23.188;2022-09-09T07:53:19;9.10;;;6.33;;
17820;SDS011;9035;42.554;23.188;2022-09-09T07:55:46;8.00;;;6.67;;
17820;SDS011;9035;42.554;23.188;2022-09-09T07:58:12;7.60;;;5.73;;
17820;SDS011;9035;42.554;23.188;2022-09-09T08:00:39;7.40;;;5.43;;
17820;SDS011;9035;42.554;23.188;2022-09-09T08:03:08;7.43;;;6.00;;
17820;SDS011;9035;42.554;23.188;2022-09-09T08:05:36;6.97;;;5.83;;
17820;SDS011;9035;42.554;23.188;2022-09-09T08:08:04;8.90;;;6.30;;
17820;SDS011;9035;42.554;23.188;2022-09-09T08:10:31;6.23;;;5.37;;
17820;SDS011;9035;42.554;23.188;2022-09-09T08:12:58;10.03;;;5.50;;
17820;SDS011;9035;42.554;23.188;2022-09-09T08:15:24;7.60;;;5.67;;
17820;SDS011;9035;42.554;23.188;2022-09-09T08:17:51;6.53;;;5.40;;
17820;SDS011;9035;42.554;23.188;2022-09-09T08:20:18;7.20;;;5.70;;
17820;SDS011;9035;42.554;23.188;2022-09-09T08:22:46;7.20;;;6.10;;
17820;SDS011;9035;42.554;23.188;2022-09-09T08:25:15;10.73;;;6.23;;
17820;SDS011;9035;42.554;23.188;2022-09-09T08:27:41;7.60;;;6.00;;
17820;SDS011;9035;42.554;23.188;2022-09-09T08:30:09;7.87;;;5.50;;
17820;SDS011;9035;42.554;23.188;2022-09-09T08:32:36;7.40;;;6.20;;
17820;SDS011;9035;42.554;23.188;2022-09-09T08:35:03;9.23;;;5.83;;
17820;SDS011;9035;42.554;23.188;2022-09-09T08:37:30;10.43;;;6.00;;
17820;SDS011;9035;42.554;23.188;2022-09-09T08:39:58;8.17;;;6.60;;
17820;SDS011;9035;42.554;23.188;2022-09-09T08:42:31;6.27;;;5.70;;
17820;SDS011;9035;42.554;23.188;2022-09-09T08:45:09;7.93;;;6.10;;
17820;SDS011;9035;42.554;23.188;2022-09-09T08:47:47;7.53;;;6.17;;
17820;SDS011;9035;42.554;23.188;2022-09-09T08:50:25;8.67;;;6.33;;
17820;SDS011;9035;42.554;23.188;2022-09-09T08:52:55;10.50;;;6.30;;
17820;SDS011;9035;42.554;23.188;2022-09-09T08:55:31;8.43;;;6.63;;
17820;SDS011;9035;42.554;23.188;2022-09-09T08:58:06;6.80;;;5.47;;
17820;SDS011;9035;42.554;23.188;2022-09-09T09:00:41;6.82;;;5.75;;
17820;SDS011;9035;42.554;23.188;2022-09-09T09:03:21;8.27;;;5.80;;
17820;SDS011;9035;42.554;23.188;2022-09-09T09:05:54;7.20;;;5.70;;
17820;SDS011;9035;42.554;23.188;2022-09-09T09:08:29;6.40;;;5.77;;
17820;SDS011;9035;42.554;23.188;2022-09-09T09:11:04;10.60;;;6.07;;
17820;SDS011;9035;42.554;23.188;2022-09-09T09:13:34;9.00;;;5.80;;
17820;SDS011;9035;42.554;23.188;2022-09-09T09:16:07;7.33;;;5.87;;
17820;SDS011;9035;42.554;23.188;2022-09-09T09:18:44;8.57;;;6.50;;
17820;SDS011;9035;42.554;23.188;2022-09-09T09:21:12;6.73;;;5.77;;
17820;SDS011;9035;42.554;23.188;2022-09-09T09:23:45;7.40;;;5.93;;
17820;SDS011;9035;42.554;23.188;2022-09-09T09:26:20;8.23;;;6.33;;
17820;SDS011;9035;42.554;23.188;2022-09-09T09:28:51;9.17;;;6.43;;
17820;SDS011;9035;42.554;23.188;2022-09-09T09:31:22;9.10;;;6.37;;
17820;SDS011;9035;42.554;23.188;2022-09-09T09:33:52;7.00;;;5.90;;
17820;SDS011;9035;42.554;23.188;2022-09-09T09:36:19;9.60;;;6.78;;
17820;SDS011;9035;42.554;23.188;2022-09-09T09:38:53;7.73;;;6.80;;
17820;SDS011;9035;42.554;23.188;2022-09-09T09:41:30;7.55;;;6.30;;
17820;SDS011;9035;42.554;23.188;2022-09-09T09:43:57;8.17;;;6.27;;
17820;SDS011;9035;42.554;23.188;2022-09-09T09:46:25;11.00;;;6.80;;
17820;SDS011;9035;42.554;23.188;2022-09-09T09:48:56;7.60;;;6.30;;
17820;SDS011;9035;42.554;23.188;2022-09-09T09:51:24;6.73;;;6.03;;
17820;SDS011;9035;42.554;23.188;2022-09-09T09:53:52;10.85;;;6.63;;
17820;SDS011;9035;42.554;23.188;2022-09-09T09:56:26;7.97;;;6.78;;
17820;SDS011;9035;42.554;23.188;2022-09-09T09:58:56;10.35;;;7.05;;
17820;SDS011;9035;42.554;23.188;2022-09-09T10:01:24;9.65;;;6.65;;
17820;SDS011;9035;42.554;23.188;2022-09-09T10:03:53;8.13;;;6.63;;
17820;SDS011;9035;42.554;23.188;2022-09-09T10:06:29;7.90;;;7.10;;
17820;SDS011;9035;42.554;23.188;2022-09-09T10:08:58;10.30;;;7.70;;
17820;SDS011;9035;42.554;23.188;2022-09-09T10:11:38;7.73;;;6.97;;
17820;SDS011;9035;42.554;23.188;2022-09-09T10:14:17;10.30;;;7.55;;
17820;SDS011;9035;42.554;23.188;2022-09-09T10:16:51;9.87;;;7.40;;
17820;SDS011;9035;42.554;23.188;2022-09-09T10:19:30;15.33;;;7.63;;
17820;SDS011;9035;42.554;23.188;2022-09-09T10:22:06;10.00;;;7.70;;
17820;SDS011;9035;42.554;23.188;2022-09-09T10:28:10;11.73;;;7.83;;
17820;SDS011;9035;42.554;23.188;2022-09-09T10:31:02;9.70;;;7.73;;
17820;SDS011;9035;42.554;23.188;2022-09-09T10:33:43;12.60;;;7.40;;
17820;SDS011;9035;42.554;23.188;2022-09-09T10:36:17;15.00;;;8.07;;
17820;SDS011;9035;42.554;23.188;2022-09-09T10:38:47;14.90;;;8.60;;
17820;SDS011;9035;42.554;23.188;2022-09-09T10:41:19;15.37;;;8.57;;
17820;SDS011;9035;42.554;23.188;2022-09-09T10:43:57;10.03;;;8.30;;
17820;SDS011;9035;42.554;23.188;2022-09-09T10:46:42;12.77;;;8.13;;
17820;SDS011;9035;42.554;23.188;2022-09-09T10:49:52;13.97;;;8.53;;
17820;SDS011;9035;42.554;23.188;2022-09-09T10:52:36;17.07;;;8.60;;
17820;SDS011;9035;42.554;23.188;2022-09-09T10:55:12;18.43;;;9.80;;
17820;SDS011;9035;42.554;23.188;2022-09-09T10:57:43;15.93;;;8.70;;
17820;SDS011;9035;42.554;23.188;2022-09-09T11:00:15;12.20;;;9.03;;
17820;SDS011;9035;42.554;23.188;2022-09-09T11:02:45;16.73;;;8.93;;
17820;SDS011;9035;42.554;23.188;2022-09-09T11:05:18;12.93;;;8.03;;
17820;SDS011;9035;42.554;23.188;2022-09-09T11:07:47;18.03;;;8.53;;
17820;SDS011;9035;42.554;23.188;2022-09-09T11:10:21;17.77;;;8.83;;
17820;SDS011;9035;42.554;23.188;2022-09-09T11:12:53;12.83;;;8.53;;
17820;SDS011;9035;42.554;23.188;2022-09-09T11:15:28;14.03;;;8.53;;
17820;SDS011;9035;42.554;23.188;2022-09-09T11:18:03;14.17;;;9.13;;
17820;SDS011;9035;42.554;23.188;2022-09-09T11:20:32;16.17;;;8.97;;
17820;SDS011;9035;42.554;23.188;2022-09-09T11:23:00;13.13;;;9.20;;
17820;SDS011;9035;42.554;23.188;2022-09-09T11:25:32;19.23;;;9.07;;
17820;SDS011;9035;42.554;23.188;2022-09-09T11:28:10;14.10;;;8.87;;
17820;SDS011;9035;42.554;23.188;2022-09-09T11:30:58;18.53;;;8.60;;
17820;SDS011;9035;42.554;23.188;2022-09-09T11:36:49;14.43;;;8.50;;
17820;SDS011;9035;42.554;23.188;2022-09-09T11:39:29;13.25;;;8.32;;
17820;SDS011;9035;42.554;23.188;2022-09-09T11:42:14;9.43;;;7.63;;
17820;SDS011;9035;42.554;23.188;2022-09-09T11:44:43;13.65;;;7.90;;
17820;SDS011;9035;42.554;23.188;2022-09-09T11:47:16;11.45;;;7.93;;
17820;SDS011;9035;42.554;23.188;2022-09-09T11:49:48;14.45;;;7.97;;
17820;SDS011;9035;42.554;23.188;2022-09-09T11:52:20;10.63;;;7.40;;
17820;SDS011;9035;42.554;23.188;2022-09-09T11:54:50;9.07;;;6.60;;
17820;SDS011;9035;42.554;23.188;2022-09-09T11:57:23;9.82;;;6.47;;
17820;SDS011;9035;42.554;23.188;2022-09-09T11:59:53;10.02;;;6.72;;
17820;SDS011;9035;42.554;23.188;2022-09-09T12:02:22;9.90;;;6.05;;
17820;SDS011;9035;42.554;23.188;2022-09-09T12:04:56;14.63;;;6.25;;
17820;SDS011;9035;42.554;23.188;2022-09-09T12:07:35;8.60;;;6.00;;
17820;SDS011;9035;42.554;23.188;2022-09-09T12:10:05;14.15;;;6.40;;
17820;SDS011;9035;42.554;23.188;2022-09-09T12:12:48;10.35;;;6.18;;
17820;SDS011;9035;42.554;23.188;2022-09-09T12:15:20;10.68;;;6.07;;
17820;SDS011;9035;42.554;23.188;2022-09-09T12:17:54;10.73;;;5.90;;
17820;SDS011;9035;42.554;23.188;2022-09-09T12:20:26;10.55;;;5.68;;
17820;SDS011;9035;42.554;23.188;2022-09-09T12:23:13;7.67;;;5.67;;
17820;SDS011;9035;42.554;23.188;2022-09-09T12:25:53;9.60;;;6.23;;
17820;SDS011;9035;42.554;23.188;2022-09-09T12:28:25;8.98;;;6.30;;
17820;SDS011;9035;42.554;23.188;2022-09-09T12:31:05;10.50;;;6.30;;
17820;SDS011;9035;42.554;23.188;2022-09-09T12:33:36;10.50;;;7.00;;
17820;SDS011;9035;42.554;23.188;2022-09-09T12:36:10;13.23;;;6.27;;
17820;SDS011;9035;42.554;23.188;2022-09-09T12:38:41;10.97;;;6.77;;
17820;SDS011;9035;42.554;23.188;2022-09-09T12:41:17;8.83;;;6.17;;
17820;SDS011;9035;42.554;23.188;2022-09-09T12:43:46;10.60;;;6.83;;
17820;SDS011;9035;42.554;23.188;2022-09-09T12:46:14;9.17;;;6.70;;
17820;SDS011;9035;42.554;23.188;2022-09-09T12:48:53;7.10;;;5.83;;
17820;SDS011;9035;42.554;23.188;2022-09-09T12:51:24;10.87;;;6.60;;
17820;SDS011;9035;42.554;23.188;2022-09-09T12:53:54;10.13;;;6.83;;
17820;SDS011;9035;42.554;23.188;2022-09-09T12:56:22;10.10;;;6.90;;
17820;SDS011;9035;42.554;23.188;2022-09-09T12:58:53;9.40;;;6.80;;
17820;SDS011;9035;42.554;23.188;2022-09-09T13:01:22;10.30;;;6.33;;
17820;SDS011;9035;42.554;23.188;2022-09-09T13:03:51;9.87;;;6.63;;
17820;SDS011;9035;42.554;23.188;2022-09-09T13:06:20;9.60;;;7.20;;
17820;SDS011;9035;42.554;23.188;2022-09-09T13:08:50;12.10;;;7.27;;
17820;SDS011;9035;42.554;23.188;2022-09-09T13:11:19;11.03;;;7.10;;
17820;SDS011;9035;42.554;23.188;2022-09-09T13:13:52;8.37;;;7.07;;
17820;SDS011;9035;42.554;23.188;2022-09-09T13:16:22;8.43;;;7.53;;
17820;SDS011;9035;42.554;23.188;2022-09-09T13:18:52;9.20;;;6.70;;
17820;SDS011;9035;42.554;23.188;2022-09-09T13:21:30;8.60;;;7.20;;
17820;SDS011;9035;42.554;23.188;2022-09-09T13:24:01;9.30;;;7.23;;
17820;SDS011;9035;42.554;23.188;2022-09-09T13:26:29;11.67;;;7.50;;
17820;SDS011;9035;42.554;23.188;2022-09-09T13:29:07;8.53;;;7.60;;
17820;SDS011;9035;42.554;23.188;2022-09-09T13:31:41;7.73;;;6.93;;
17820;SDS011;9035;42.554;23.188;2022-09-09T13:34:12;8.63;;;6.90;;
17820;SDS011;9035;42.554;23.188;2022-09-09T13:36:40;10.17;;;7.80;;
17820;SDS011;9035;42.554;23.188;2022-09-09T13:39:15;11.57;;;6.83;;
17820;SDS011;9035;42.554;23.188;2022-09-09T13:41:43;9.10;;;7.47;;
17820;SDS011;9035;42.554;23.188;2022-09-09T13:44:17;10.93;;;6.80;;
17820;SDS011;9035;42.554;23.188;2022-09-09T13:46:58;11.40;;;7.37;;
17820;SDS011;9035;42.554;23.188;2022-09-09T13:49:28;8.67;;;7.77;;
17820;SDS011;9035;42.554;23.188;2022-09-09T13:52:05;12.70;;;7.83;;
17820;SDS011;9035;42.554;23.188;2022-09-09T13:54:38;11.40;;;7.03;;
17820;SDS011;9035;42.554;23.188;2022-09-09T13:57:05;10.37;;;6.97;;
17820;SDS011;9035;42.554;23.188;2022-09-09T13:59:39;8.63;;;6.63;;
17820;SDS011;9035;42.554;23.188;2022-09-09T14:02:06;9.60;;;6.63;;
17820;SDS011;9035;42.554;23.188;2022-09-09T14:04:33;7.33;;;6.63;;
17820;SDS011;9035;42.554;23.188;2022-09-09T14:07:01;9.17;;;7.03;;
17820;SDS011;9035;42.554;23.188;2022-09-09T14:09:28;10.17;;;6.87;;
17820;SDS011;9035;42.554;23.188;2022-09-09T14:11:56;8.80;;;6.88;;
17820;SDS011;9035;42.554;23.188;2022-09-09T14:14:23;12.98;;;7.28;;
17820;SDS011;9035;42.554;23.188;2022-09-09T14:16:50;7.38;;;6.00;;
17820;SDS011;9035;42.554;23.188;2022-09-09T14:19:16;9.20;;;6.55;;
17820;SDS011;9035;42.554;23.188;2022-09-09T14:21:43;9.07;;;5.70;;
17820;SDS011;9035;42.554;23.188;2022-09-09T14:24:10;8.93;;;5.90;;
17820;SDS011;9035;42.554;23.188;2022-09-09T14:26:37;9.07;;;5.30;;
17820;SDS011;9035;42.554;23.188;2022-09-09T14:29:05;6.20;;;5.65;;
17820;SDS011;9035;42.554;23.188;2022-09-09T14:31:32;7.30;;;5.30;;
17820;SDS011;9035;42.554;23.188;2022-09-09T14:33:59;8.45;;;5.43;;
17820;SDS011;9035;42.554;23.188;2022-09-09T14:36:25;6.97;;;5.43;;
17820;SDS011;9035;42.554;23.188;2022-09-09T14:38:52;8.02;;;5.30;;
17820;SDS011;9035;42.554;23.188;2022-09-09T14:41:19;9.35;;;5.30;;
17820;SDS011;9035;42.554;23.188;2022-09-09T14:43:47;7.78;;;5.30;;
17820;SDS011;9035;42.554;23.188;2022-09-09T14:46:16;9.52;;;5.40;;
17820;SDS011;9035;42.554;23.188;2022-09-09T14:48:44;9.50;;;5.53;;
17820;SDS011;9035;42.554;23.188;2022-09-09T14:51:14;9.10;;;5.57;;
17820;SDS011;9035;42.554;23.188;2022-09-09T14:53:42;9.85;;;5.97;;
17820;SDS011;9035;42.554;23.188;2022-09-09T14:56:10;10.32;;;5.40;;
17820;SDS011;9035;42.554;23.188;2022-09-09T14:58:39;9.50;;;5.65;;
17820;SDS011;9035;42.554;23.188;2022-09-09T15:01:07;8.73;;;5.30;;
17820;SDS011;9035;42.554;23.188;2022-09-09T15:03:37;9.98;;;6.10;;
17820;SDS011;9035;42.554;23.188;2022-09-09T15:06:05;8.27;;;5.13;;
17820;SDS011;9035;42.554;23.188;2022-09-09T15:08:34;8.65;;;5.50;;
17820;SDS011;9035;42.554;23.188;2022-09-09T15:11:01;6.63;;;5.10;;
17820;SDS011;9035;42.554;23.188;2022-09-09T15:13:30;9.35;;;5.30;;
17820;SDS011;9035;42.554;23.188;2022-09-09T15:16:02;9.13;;;5.20;;